Time;durP1;ratioP1;P1;durP2;ratioP2;P2;SDS_P1;SDS_P2;PMS_P1;PMS_P2;Temp;Humidity;BMP_temperature;BMP_pressure;BME280_temperature;BME280_humidity;BME280_pressure;Samples;Min_cycle;Max_cycle;Signal;HPM_P1;HPM_P2
2024/03/02 00:01:27;;;;;;;1.90;0.87;;;9.80;99.90;;;;;;5067315;28;20874;-44
2024/03/02 00:03:55;;;;;;;2.30;1.07;;;9.80;99.90;;;;;;5060151;28;20475;-45
2024/03/02 00:06:24;;;;;;;1.33;0.73;;;9.90;99.90;;;;;;5068319;28;20475;-44
2024/03/02 00:08:59;;;;;;;2.00;1.10;;;9.90;99.90;;;;;;5067711;28;20500;-45
2024/03/02 00:11:28;;;;;;;2.10;1.60;;;9.80;99.90;;;;;;5069314;28;21485;-44
2024/03/02 00:13:56;;;;;;;1.97;0.93;;;9.90;99.90;;;;;;5070412;28;20445;-44
2024/03/02 00:16:31;;;;;;;2.20;1.10;;;9.80;99.90;;;;;;5065434;28;20458;-45
2024/03/02 00:19:03;;;;;;;1.13;0.60;;;9.80;99.90;;;;;;5045763;28;20454;-45
2024/03/02 00:21:32;;;;;;;1.90;0.90;;;9.80;99.90;;;;;;5069654;28;20465;-44
2024/03/02 00:24:02;;;;;;;2.47;0.77;;;9.80;99.90;;;;;;5072178;28;20491;-44
2024/03/02 00:26:31;;;;;;;1.27;0.77;;;9.80;99.90;;;;;;5065239;28;21047;-44
2024/03/02 00:29:01;;;;;;;4.93;0.90;;;9.80;99.90;;;;;;5066010;28;20954;-44
2024/03/02 00:31:33;;;;;;;2.13;1.20;;;9.80;99.90;;;;;;5066122;28;20450;-45
2024/03/02 00:34:06;;;;;;;1.37;0.77;;;9.80;99.90;;;;;;5066611;28;20496;-45
2024/03/02 00:36:35;;;;;;;1.40;0.70;;;9.80;99.90;;;;;;5069145;28;20450;-45
2024/03/02 00:39:07;;;;;;;1.23;0.70;;;9.80;99.90;;;;;;5068875;28;20443;-44
2024/03/02 00:41:37;;;;;;;3.13;1.00;;;9.80;99.90;;;;;;5069869;28;20483;-45
2024/03/02 00:44:07;;;;;;;3.17;1.13;;;9.80;99.90;;;;;;5064632;28;21104;-44
2024/03/02 00:46:39;;;;;;;1.40;0.80;;;9.90;99.90;;;;;;5062559;28;20827;-45
2024/03/02 00:49:19;;;;;;;2.13;1.20;;;9.80;99.90;;;;;;5064801;28;20455;-44
2024/03/02 00:51:48;;;;;;;4.37;1.37;;;9.80;99.90;;;;;;5069096;28;20486;-45
2024/03/02 00:54:20;;;;;;;3.10;1.00;;;9.80;99.90;;;;;;5068319;28;20523;-45
2024/03/02 00:56:49;;;;;;;1.10;0.70;;;9.80;99.90;;;;;;5065352;28;20542;-45
2024/03/02 00:59:17;;;;;;;1.80;0.80;;;9.80;99.90;;;;;;5064927;28;20442;-44
2024/03/02 01:01:49;;;;;;;2.33;0.87;;;9.80;99.90;;;;;;5069190;28;20545;-44
2024/03/02 01:04:17;;;;;;;2.07;0.90;;;9.80;99.90;;;;;;5063820;28;20532;-45
2024/03/02 01:06:46;;;;;;;1.40;0.90;;;9.80;99.90;;;;;;5048848;28;20455;-44
2024/03/02 01:09:16;;;;;;;1.33;0.60;;;9.80;99.90;;;;;;5068761;28;20435;-46
2024/03/02 01:11:46;;;;;;;1.73;0.80;;;9.80;99.90;;;;;;5071436;28;20465;-45
2024/03/02 01:14:15;;;;;;;1.50;0.80;;;9.80;99.90;;;;;;5063764;28;20527;-46
2024/03/02 01:16:44;;;;;;;1.43;0.87;;;9.80;99.90;;;;;;5052501;28;20463;-47
2024/03/02 01:19:14;;;;;;;1.57;0.90;;;9.80;99.90;;;;;;5059233;28;20791;-45
2024/03/02 01:21:42;;;;;;;1.30;0.90;;;9.80;99.90;;;;;;5069595;28;20494;-47
2024/03/02 01:24:13;;;;;;;4.40;1.30;;;9.80;99.90;;;;;;5066368;28;20524;-46
2024/03/02 01:26:42;;;;;;;2.40;0.93;;;9.80;99.90;;;;;;5066619;28;20462;-46
2024/03/02 01:29:10;;;;;;;2.77;0.83;;;9.80;99.90;;;;;;5070826;28;20426;-47
2024/03/02 01:31:42;;;;;;;1.07;0.70;;;9.80;99.90;;;;;;5068337;28;20571;-45
2024/03/02 01:34:12;;;;;;;3.63;1.00;;;9.80;99.90;;;;;;5063525;28;20471;-48
2024/03/02 01:36:44;;;;;;;1.47;1.00;;;9.80;99.90;;;;;;5066364;28;20486;-46
2024/03/02 01:39:12;;;;;;;2.10;0.90;;;9.80;99.90;;;;;;5063128;28;20473;-47
2024/03/02 01:41:42;;;;;;;2.00;1.10;;;9.80;99.90;;;;;;5070552;28;20464;-47
2024/03/02 01:44:12;;;;;;;1.57;0.97;;;9.80;99.90;;;;;;5064843;28;20479;-45
2024/03/02 01:46:40;;;;;;;1.70;0.60;;;9.80;99.90;;;;;;5063977;28;20992;-45
2024/03/02 01:49:09;;;;;;;1.00;0.60;;;9.80;99.90;;;;;;5062841;28;20439;-46
2024/03/02 01:51:38;;;;;;;1.63;0.93;;;9.80;99.90;;;;;;5067550;28;20474;-47
2024/03/02 01:54:08;;;;;;;1.57;0.87;;;9.80;99.90;;;;;;5068443;28;20454;-46
2024/03/02 01:56:37;;;;;;;1.20;0.80;;;9.80;99.90;;;;;;5069143;28;20458;-46
2024/03/02 01:59:05;;;;;;;1.87;0.80;;;9.80;99.90;;;;;;5063828;28;20489;-46
2024/03/02 02:01:34;;;;;;;3.40;0.90;;;9.80;99.90;;;;;;5068580;28;20818;-46
2024/03/02 02:04:02;;;;;;;1.50;0.60;;;9.80;99.90;;;;;;5066130;28;20499;-46
2024/03/02 02:06:30;;;;;;;1.43;0.83;;;9.80;99.90;;;;;;5069093;28;20463;-46
2024/03/02 02:08:58;;;;;;;2.30;0.80;;;9.80;99.90;;;;;;5064673;28;20445;-46
2024/03/02 02:11:28;;;;;;;3.43;1.10;;;9.80;99.90;;;;;;5066834;28;20450;-47
2024/03/02 02:13:57;;;;;;;2.33;1.20;;;9.80;99.90;;;;;;5065870;28;20986;-45
2024/03/02 02:16:26;;;;;;;1.90;0.90;;;9.80;99.90;;;;;;5064912;28;20479;-46
2024/03/02 02:18:55;;;;;;;1.60;1.00;;;9.80;99.90;;;;;;5057842;28;20460;-45
2024/03/02 02:21:27;;;;;;;2.20;0.93;;;9.80;99.90;;;;;;5065204;28;20462;-47
2024/03/02 02:23:56;;;;;;;1.80;0.97;;;9.80;99.90;;;;;;5069351;28;20524;-46
2024/03/02 02:26:26;;;;;;;2.10;1.00;;;9.80;99.90;;;;;;5065048;28;20500;-46
2024/03/02 02:28:56;;;;;;;2.20;0.83;;;9.80;99.90;;;;;;5062363;28;20450;-48
2024/03/02 02:31:27;;;;;;;1.40;1.00;;;9.80;99.90;;;;;;5064531;28;21023;-46
2024/03/02 02:33:56;;;;;;;1.83;0.80;;;9.80;99.90;;;;;;5060974;28;20443;-45
2024/03/02 02:36:28;;;;;;;1.53;0.87;;;9.80;99.90;;;;;;5065151;28;20487;-47
2024/03/02 02:38:57;;;;;;;1.90;1.10;;;9.80;99.90;;;;;;5062171;28;20975;-46
2024/03/02 02:41:26;;;;;;;3.40;1.20;;;9.80;99.90;;;;;;5066764;28;20459;-46
2024/03/02 02:43:57;;;;;;;2.13;1.10;;;9.80;99.90;;;;;;5065164;28;20824;-46
2024/03/02 02:46:25;;;;;;;1.73;0.80;;;9.80;99.90;;;;;;5059784;28;20607;-48
2024/03/02 02:48:57;;;;;;;1.80;0.87;;;9.80;99.90;;;;;;5059640;28;20451;-47
2024/03/02 02:51:28;;;;;;;3.70;0.97;;;9.80;99.90;;;;;;5066157;28;20508;-47
2024/03/02 02:53:56;;;;;;;2.53;1.07;;;9.80;99.90;;;;;;5064233;28;20445;-46
2024/03/02 02:56:27;;;;;;;2.57;1.10;;;9.80;99.90;;;;;;5066896;28;20466;-47
2024/03/02 02:58:56;;;;;;;2.17;0.90;;;9.80;99.90;;;;;;5062653;28;20838;-48
2024/03/02 03:01:26;;;;;;;1.47;1.00;;;9.80;99.90;;;;;;5068450;28;20465;-45
2024/03/02 03:03:57;;;;;;;1.83;0.90;;;9.80;99.90;;;;;;5060415;28;20479;-47
2024/03/02 03:06:25;;;;;;;1.47;0.80;;;9.80;99.90;;;;;;5066426;28;21003;-48
2024/03/02 03:08:58;;;;;;;3.20;1.00;;;9.80;99.90;;;;;;5111163;22;20530;-47
2024/03/02 03:11:27;;;;;;;1.57;0.77;;;9.80;99.90;;;;;;5053839;28;20468;-46
2024/03/02 03:13:56;;;;;;;1.90;0.80;;;9.80;99.90;;;;;;5048689;28;20431;-45
2024/03/02 03:16:25;;;;;;;1.63;1.23;;;9.80;99.90;;;;;;5031021;28;20456;-49
2024/03/02 03:18:57;;;;;;;1.80;0.70;;;9.80;99.90;;;;;;5036365;28;20447;-46
2024/03/02 03:21:27;;;;;;;1.77;1.17;;;9.80;99.90;;;;;;5047999;28;20555;-48
2024/03/02 03:23:55;;;;;;;1.37;0.80;;;9.80;99.90;;;;;;5044292;28;20463;-49
2024/03/02 03:26:28;;;;;;;1.40;0.97;;;9.80;99.90;;;;;;5048670;28;20883;-48
2024/03/02 03:28:58;;;;;;;1.93;0.80;;;9.70;99.90;;;;;;5042269;28;20423;-47
2024/03/02 03:31:27;;;;;;;1.57;1.00;;;9.80;99.90;;;;;;5049133;28;20470;-47
2024/03/02 03:33:57;;;;;;;1.30;0.80;;;9.80;99.90;;;;;;5041843;28;20455;-45
2024/03/02 03:36:26;;;;;;;3.43;1.30;;;9.80;99.90;;;;;;5047037;28;20456;-45
2024/03/02 03:38:55;;;;;;;2.03;0.90;;;9.80;99.90;;;;;;5043683;28;20945;-46
2024/03/02 03:41:24;;;;;;;1.20;0.80;;;9.80;99.90;;;;;;5047304;28;20511;-44
2024/03/02 03:43:55;;;;;;;1.30;0.70;;;9.70;99.90;;;;;;5040561;28;20514;-46
2024/03/02 03:46:27;;;;;;;2.90;1.10;;;9.70;99.90;;;;;;5043925;28;20520;-46
2024/03/02 03:48:56;;;;;;;1.97;1.07;;;9.70;99.90;;;;;;5040309;28;20822;-47
2024/03/02 03:51:25;;;;;;;2.13;1.00;;;9.70;99.90;;;;;;5047747;28;20980;-46
2024/03/02 03:53:54;;;;;;;1.70;1.10;;;9.70;99.90;;;;;;5040242;28;20549;-46
2024/03/02 03:56:25;;;;;;;2.00;0.93;;;9.80;99.90;;;;;;5046900;28;20496;-47
2024/03/02 03:58:59;;;;;;;1.70;1.10;;;9.80;99.90;;;;;;5044924;28;20487;-46
2024/03/02 04:01:27;;;;;;;1.97;0.97;;;9.80;99.90;;;;;;5047837;28;20549;-49
2024/03/02 04:03:57;;;;;;;1.57;0.90;;;9.70;99.90;;;;;;5049598;28;20448;-45
2024/03/02 04:06:26;;;;;;;3.80;1.40;;;9.70;99.90;;;;;;5053305;28;20493;-46
2024/03/02 04:08:56;;;;;;;2.27;1.20;;;9.70;99.90;;;;;;5047681;28;20949;-45
2024/03/02 04:11:27;;;;;;;2.33;1.07;;;9.70;99.90;;;;;;5052526;28;20463;-47
2024/03/02 04:13:55;;;;;;;1.40;0.83;;;9.70;99.90;;;;;;5050081;28;20804;-46
2024/03/02 04:16:28;;;;;;;2.00;1.00;;;9.70;99.90;;;;;;5053921;28;20451;-45
2024/03/02 04:18:56;;;;;;;2.27;0.80;;;9.70;99.90;;;;;;5044316;28;20463;-47
2024/03/02 04:21:25;;;;;;;1.90;1.03;;;9.70;99.90;;;;;;5049260;28;20462;-47
2024/03/02 04:23:57;;;;;;;1.90;0.90;;;9.70;99.90;;;;;;5050922;28;20955;-45
2024/03/02 04:26:26;;;;;;;1.27;0.63;;;9.70;99.90;;;;;;5050064;28;20498;-46
2024/03/02 04:28:55;;;;;;;2.50;1.20;;;9.70;99.90;;;;;;5047957;28;20447;-44
2024/03/02 04:31:28;;;;;;;2.17;1.10;;;9.70;99.90;;;;;;5041943;28;20481;-46
2024/03/02 04:33:57;;;;;;;2.57;1.10;;;9.70;99.90;;;;;;5043460;28;20471;-47
2024/03/02 04:36:27;;;;;;;2.27;1.30;;;9.70;99.90;;;;;;5048216;28;20471;-46
2024/03/02 04:38:55;;;;;;;1.63;1.00;;;9.70;99.90;;;;;;5046468;28;20474;-46
2024/03/02 04:41:26;;;;;;;1.80;1.07;;;9.70;99.90;;;;;;5054751;28;20458;-46
2024/03/02 04:43:54;;;;;;;1.43;0.90;;;9.70;99.90;;;;;;5042814;28;20443;-46
2024/03/02 04:46:25;;;;;;;1.20;0.70;;;9.70;99.90;;;;;;5048699;28;20832;-47
2024/03/02 04:48:57;;;;;;;1.40;0.80;;;9.70;99.90;;;;;;5043156;28;20447;-47
2024/03/02 04:51:27;;;;;;;1.37;1.00;;;9.70;99.90;;;;;;5046123;28;21069;-46
2024/03/02 04:53:56;;;;;;;1.50;0.80;;;9.60;99.90;;;;;;5045001;28;20435;-46
2024/03/02 04:56:49;;;;;;;2.03;1.03;;;9.70;99.90;;;;;;5049414;28;20468;-46
2024/03/02 04:59:18;;;;;;;2.23;1.40;;;9.70;99.90;;;;;;5044406;28;20501;-45
2024/03/02 05:01:47;;;;;;;1.60;0.90;;;9.70;99.90;;;;;;5049859;28;20463;-47
2024/03/02 05:04:17;;;;;;;2.07;1.17;;;9.60;99.90;;;;;;5045575;28;20471;-46
2024/03/02 05:06:52;;;;;;;1.60;0.80;;;9.70;99.90;;;;;;5051150;28;20525;-46
2024/03/02 05:09:21;;;;;;;2.53;1.10;;;9.60;99.90;;;;;;5046486;28;20493;-46
2024/03/02 05:12:09;;;;;;;2.07;0.97;;;9.60;99.90;;;;;;5046080;28;20479;-44
2024/03/02 05:14:38;;;;;;;2.80;1.03;;;9.70;99.90;;;;;;5050307;28;20981;-46
2024/03/02 05:17:07;;;;;;;1.50;0.80;;;9.60;99.90;;;;;;5051272;28;20967;-45
2024/03/02 05:19:38;;;;;;;2.40;0.97;;;9.60;99.90;;;;;;5044383;28;20446;-47
2024/03/02 05:22:07;;;;;;;2.00;1.00;;;9.60;99.90;;;;;;5051461;28;20438;-46
2024/03/02 05:24:37;;;;;;;2.10;1.30;;;9.60;99.90;;;;;;5053339;28;20451;-46
2024/03/02 05:27:07;;;;;;;3.00;1.40;;;9.60;99.90;;;;;;5051348;28;20427;-46
2024/03/02 05:29:37;;;;;;;1.67;0.80;;;9.60;99.90;;;;;;5049523;28;20459;-46
2024/03/02 05:32:05;;;;;;;2.73;1.10;;;9.60;99.90;;;;;;5049621;28;20450;-46
2024/03/02 05:34:35;;;;;;;2.10;1.10;;;9.60;99.90;;;;;;5043473;28;20493;-45
2024/03/02 05:37:08;;;;;;;1.77;1.07;;;9.60;99.90;;;;;;5050935;28;20509;-47
2024/03/02 05:39:36;;;;;;;1.53;1.10;;;9.60;99.90;;;;;;5050618;28;20436;-45
2024/03/02 05:42:05;;;;;;;1.70;1.20;;;9.60;99.90;;;;;;5050869;28;20817;-45
2024/03/02 05:44:34;;;;;;;1.67;1.00;;;9.60;99.90;;;;;;5045567;28;20860;-45
2024/03/02 05:47:08;;;;;;;1.87;1.07;;;9.60;99.90;;;;;;5050475;28;20562;-46
2024/03/02 05:49:37;;;;;;;1.40;0.90;;;9.60;99.90;;;;;;5043843;28;20435;-46
2024/03/02 05:52:08;;;;;;;1.90;0.87;;;9.60;99.90;;;;;;5050161;28;20436;-46
2024/03/02 05:54:37;;;;;;;3.17;1.23;;;9.60;99.90;;;;;;5045658;28;20837;-46
2024/03/02 05:57:26;;;;;;;1.80;1.30;;;9.60;99.90;;;;;;5050631;28;20935;-45
2024/03/02 05:59:57;;;;;;;2.20;0.97;;;9.60;99.90;;;;;;5047461;28;22847;-47
2024/03/02 06:02:26;;;;;;;2.60;1.43;;;9.60;99.90;;;;;;5050700;28;20427;-45
2024/03/02 06:04:57;;;;;;;2.40;1.40;;;9.60;99.90;;;;;;5037930;28;20802;-46
2024/03/02 06:07:28;;;;;;;1.73;1.10;;;9.60;99.90;;;;;;5050775;28;20429;-45
2024/03/02 06:09:57;;;;;;;2.37;1.20;;;9.60;99.90;;;;;;5043887;28;20448;-45
2024/03/02 06:12:25;;;;;;;2.47;1.80;;;9.60;99.90;;;;;;5046679;28;20454;-46
2024/03/02 06:14:54;;;;;;;1.87;1.00;;;9.60;99.90;;;;;;5038786;28;20841;-46
2024/03/02 06:17:25;;;;;;;1.50;1.00;;;9.60;99.90;;;;;;5030474;28;20445;-45
2024/03/02 06:19:54;;;;;;;2.20;1.00;;;9.60;99.90;;;;;;5042320;28;20459;-49
2024/03/02 06:22:24;;;;;;;3.60;0.90;;;9.50;99.90;;;;;;5047047;28;20973;-45
2024/03/02 06:24:56;;;;;;;2.40;1.10;;;9.60;99.90;;;;;;5043713;28;20460;-48
2024/03/02 06:27:25;;;;;;;2.47;0.90;;;9.60;99.90;;;;;;5047808;28;20490;-45
2024/03/02 06:29:57;;;;;;;2.50;0.90;;;9.60;99.90;;;;;;5046334;28;20995;-44
2024/03/02 06:32:27;;;;;;;2.10;1.07;;;9.60;99.90;;;;;;5050227;28;20447;-44
2024/03/02 06:34:57;;;;;;;1.53;1.20;;;9.50;99.90;;;;;;5036792;28;20538;-44
2024/03/02 06:37:26;;;;;;;2.40;1.00;;;9.60;99.90;;;;;;5046239;28;20467;-46
2024/03/02 06:39:55;;;;;;;2.00;0.93;;;9.60;99.90;;;;;;5048850;28;20454;-45
2024/03/02 06:42:24;;;;;;;2.03;0.93;;;9.60;99.90;;;;;;5049787;28;20435;-44
2024/03/02 06:44:55;;;;;;;1.60;0.80;;;9.60;99.90;;;;;;5046403;28;20508;-45
2024/03/02 06:47:26;;;;;;;1.30;1.00;;;9.50;99.90;;;;;;5049899;28;20471;-46
2024/03/02 06:49:55;;;;;;;1.60;1.00;;;9.60;99.90;;;;;;5039118;28;20451;-45
2024/03/02 06:52:26;;;;;;;1.47;0.70;;;9.50;99.90;;;;;;5049282;28;20928;-44
2024/03/02 06:54:55;;;;;;;2.57;0.80;;;9.50;99.90;;;;;;5046107;28;20481;-47
2024/03/02 06:57:24;;;;;;;1.73;0.70;;;9.60;99.90;;;;;;5045528;28;20448;-45
2024/03/02 06:59:54;;;;;;;1.40;0.80;;;9.50;99.90;;;;;;5048908;28;20451;-46
2024/03/02 07:02:22;;;;;;;1.67;1.00;;;9.60;99.90;;;;;;5051326;28;20491;-46
2024/03/02 07:04:53;;;;;;;1.40;0.90;;;9.50;99.90;;;;;;5038947;28;20459;-45
2024/03/02 07:07:22;;;;;;;1.57;0.63;;;9.60;99.90;;;;;;5048397;28;20493;-46
2024/03/02 07:09:51;;;;;;;3.37;1.00;;;9.60;99.90;;;;;;5048828;28;20548;-45
2024/03/02 07:12:21;;;;;;;2.43;1.63;;;9.60;99.90;;;;;;5049471;28;20520;-45
2024/03/02 07:15:11;;;;;;;2.03;0.90;;;9.50;99.90;;;;;;5042778;28;20529;-46
2024/03/02 07:17:39;;;;;;;1.40;0.83;;;9.50;99.90;;;;;;5047717;28;20432;-45
2024/03/02 07:20:08;;;;;;;1.47;0.70;;;9.60;99.90;;;;;;5044576;28;20860;-49
2024/03/02 07:22:37;;;;;;;2.13;1.00;;;9.50;99.90;;;;;;5048665;28;21162;-46
2024/03/02 07:25:09;;;;;;;2.27;0.90;;;9.50;99.90;;;;;;5030452;28;20509;-45
2024/03/02 07:27:59;;;;;;;1.70;0.90;;;9.50;99.90;;;;;;5042597;28;20459;-47
2024/03/02 07:30:27;;;;;;;1.30;0.77;;;9.60;99.90;;;;;;5042302;28;20473;-46
2024/03/02 07:32:57;;;;;;;1.90;1.17;;;9.60;99.90;;;;;;5043460;28;20446;-47
2024/03/02 07:35:27;;;;;;;2.03;1.00;;;9.60;99.90;;;;;;5046177;28;20467;-47
2024/03/02 07:37:56;;;;;;;1.87;1.30;;;9.50;99.90;;;;;;5044817;28;20431;-48
2024/03/02 07:40:25;;;;;;;1.70;1.10;;;9.50;99.90;;;;;;5047199;28;20658;-47
2024/03/02 07:42:53;;;;;;;1.90;1.13;;;9.60;99.90;;;;;;5043572;28;20449;-47
2024/03/02 07:45:24;;;;;;;3.27;1.40;;;9.60;99.90;;;;;;5052813;28;20459;-45
2024/03/02 07:47:53;;;;;;;3.03;0.93;;;9.60;99.90;;;;;;5051818;28;20463;-46
2024/03/02 07:50:24;;;;;;;2.67;0.90;;;9.60;99.90;;;;;;5032789;28;20461;-45
2024/03/02 07:52:52;;;;;;;2.53;1.60;;;9.50;99.90;;;;;;5053188;28;20929;-45
2024/03/02 07:55:21;;;;;;;2.00;1.00;;;9.50;99.90;;;;;;5051992;28;20471;-45
2024/03/02 07:57:49;;;;;;;5.40;1.43;;;9.60;99.90;;;;;;5047642;28;20453;-47
2024/03/02 08:00:20;;;;;;;3.23;1.33;;;9.60;99.90;;;;;;5050552;28;20537;-45
2024/03/02 08:02:51;;;;;;;1.43;0.83;;;9.60;99.90;;;;;;5052178;28;20447;-45
2024/03/02 08:05:21;;;;;;;1.90;1.00;;;9.50;99.90;;;;;;5044200;28;21019;-45
2024/03/02 08:07:52;;;;;;;1.60;0.90;;;9.50;99.90;;;;;;5045382;28;20474;-46
2024/03/02 08:10:23;;;;;;;2.27;1.10;;;9.50;99.90;;;;;;5051173;28;20530;-47
2024/03/02 08:12:55;;;;;;;1.60;0.80;;;9.50;99.90;;;;;;5053314;28;20590;-48
2024/03/02 08:15:24;;;;;;;1.47;1.00;;;9.50;99.90;;;;;;5049190;28;20467;-45
2024/03/02 08:17:58;;;;;;;1.67;0.80;;;9.50;99.90;;;;;;5045775;28;21031;-46
2024/03/02 08:20:27;;;;;;;1.50;0.90;;;9.50;99.90;;;;;;5047591;28;20477;-46
2024/03/02 08:22:57;;;;;;;3.50;1.83;;;9.50;99.90;;;;;;5046725;28;20482;-45
2024/03/02 08:25:27;;;;;;;2.20;0.97;;;9.60;99.90;;;;;;5052309;28;20977;-45
2024/03/02 08:27:56;;;;;;;1.50;1.07;;;9.60;99.90;;;;;;5045660;28;20461;-46
2024/03/02 08:30:25;;;;;;;2.00;1.03;;;9.50;99.90;;;;;;5049682;28;21055;-45
2024/03/02 08:32:53;;;;;;;1.73;1.07;;;9.50;99.90;;;;;;5052564;28;20785;-44
2024/03/02 08:35:23;;;;;;;1.30;0.80;;;9.50;99.90;;;;;;5043968;28;20800;-44
2024/03/02 08:37:54;;;;;;;1.87;0.90;;;9.60;99.90;;;;;;5045528;28;20434;-43
2024/03/02 08:40:23;;;;;;;2.37;1.00;;;9.60;99.90;;;;;;5047127;28;21208;-45
2024/03/02 08:42:53;;;;;;;2.20;1.20;;;9.60;99.90;;;;;;5050190;28;20962;-45
2024/03/02 08:45:21;;;;;;;2.03;1.17;;;9.60;99.90;;;;;;5033203;28;20524;-44
2024/03/02 08:47:50;;;;;;;1.80;1.20;;;9.60;99.90;;;;;;5049490;28;20558;-45
2024/03/02 08:50:19;;;;;;;3.57;1.10;;;9.60;99.90;;;;;;5047299;28;20907;-45
2024/03/02 08:52:49;;;;;;;1.80;0.87;;;9.60;99.90;;;;;;5050717;28;20659;-45
2024/03/02 08:55:17;;;;;;;5.53;1.20;;;9.60;99.90;;;;;;5047411;28;20988;-43
2024/03/02 08:57:46;;;;;;;1.70;1.00;;;9.60;99.90;;;;;;5051707;28;20457;-44
2024/03/02 09:00:16;;;;;;;2.80;1.00;;;9.60;99.90;;;;;;5058092;28;20944;-44
2024/03/02 09:02:45;;;;;;;2.93;1.20;;;9.60;99.90;;;;;;5050376;28;20459;-44
2024/03/02 09:05:14;;;;;;;1.47;0.97;;;9.60;99.90;;;;;;5042972;28;21012;-44
2024/03/02 09:07:42;;;;;;;3.30;1.00;;;9.60;99.90;;;;;;5049474;28;20473;-44
2024/03/02 09:10:13;;;;;;;1.13;0.60;;;9.60;99.90;;;;;;5051298;28;20461;-44
2024/03/02 09:12:42;;;;;;;1.47;0.90;;;9.60;99.90;;;;;;5033994;28;20463;-44
2024/03/02 09:15:11;;;;;;;2.20;1.17;;;9.70;99.90;;;;;;5049394;28;20916;-45
2024/03/02 09:17:42;;;;;;;2.47;1.10;;;9.60;99.90;;;;;;5034280;28;20427;-44
2024/03/02 09:20:13;;;;;;;4.60;1.10;;;9.70;99.90;;;;;;5045239;28;20452;-43
2024/03/02 09:22:42;;;;;;;2.23;0.87;;;9.70;99.90;;;;;;5034214;28;20432;-44
2024/03/02 09:25:13;;;;;;;1.30;0.73;;;9.70;99.90;;;;;;5051164;28;20466;-44
2024/03/02 09:27:42;;;;;;;1.70;1.07;;;9.70;99.90;;;;;;5051316;28;20563;-44
2024/03/02 09:30:11;;;;;;;3.20;1.10;;;9.70;99.90;;;;;;5043876;28;20560;-44
2024/03/02 09:32:40;;;;;;;2.40;1.57;;;9.70;99.90;;;;;;5046985;28;20478;-44
2024/03/02 09:35:09;;;;;;;3.47;1.07;;;9.70;99.90;;;;;;5047102;28;20550;-43
2024/03/02 09:37:37;;;;;;;1.70;0.70;;;9.70;99.90;;;;;;5048365;28;20441;-44
2024/03/02 09:40:06;;;;;;;3.10;1.03;;;9.70;99.90;;;;;;5029932;28;21007;-45
2024/03/02 09:42:38;;;;;;;2.30;1.03;;;9.70;99.90;;;;;;5045426;28;20474;-44
2024/03/02 09:45:07;;;;;;;3.50;1.10;;;9.70;99.90;;;;;;5048852;28;20470;-44
2024/03/02 09:47:35;;;;;;;1.70;0.93;;;9.70;99.90;;;;;;5046730;28;20563;-45
2024/03/02 09:50:05;;;;;;;1.73;0.80;;;9.80;99.90;;;;;;5043091;28;20493;-44
2024/03/02 09:52:35;;;;;;;2.47;1.00;;;9.80;99.90;;;;;;5046806;28;20458;-44
2024/03/02 09:55:05;;;;;;;1.50;0.83;;;9.80;99.90;;;;;;5048803;28;20489;-44
2024/03/02 09:57:34;;;;;;;3.73;1.27;;;9.80;99.90;;;;;;5046480;28;20937;-44
2024/03/02 10:00:08;;;;;;;1.63;1.20;;;9.80;99.90;;;;;;5044459;28;20454;-44
2024/03/02 10:02:37;;;;;;;2.57;1.10;;;9.80;99.90;;;;;;5055326;28;20434;-46
2024/03/02 10:05:05;;;;;;;3.97;1.30;;;9.80;99.90;;;;;;5026831;28;20885;-45
2024/03/02 10:07:33;;;;;;;2.43;1.20;;;9.80;99.90;;;;;;5048845;28;21071;-45
2024/03/02 10:10:14;;;;;;;1.80;1.07;;;9.80;99.90;;;;;;5050344;28;20455;-44
2024/03/02 10:12:42;;;;;;;2.90;0.90;;;9.80;99.90;;;;;;5048339;28;20443;-44
2024/03/02 10:15:12;;;;;;;2.47;1.00;;;9.80;99.90;;;;;;5051986;28;20460;-43
2024/03/02 10:17:40;;;;;;;2.00;1.37;;;9.80;99.90;;;;;;5048566;28;20442;-44
2024/03/02 10:20:24;;;;;;;2.00;1.10;;;9.90;99.90;;;;;;5043283;28;20460;-44
2024/03/02 10:22:53;;;;;;;3.10;1.47;;;10.00;99.90;;;;;;5047176;28;20455;-45
2024/03/02 10:25:32;;;;;;;3.33;1.00;;;10.10;99.90;;;;;;5030403;28;20461;-44
2024/03/02 10:28:18;;;;;;;3.27;0.87;;;10.10;99.90;;;;;;5045107;28;20842;-45
2024/03/02 10:30:51;;;;;;;3.20;1.07;;;10.20;99.90;;;;;;5045388;28;20464;-45
2024/03/02 10:33:23;;;;;;;3.70;0.93;;;10.20;99.90;;;;;;5044603;28;20495;-45
2024/03/02 10:35:51;;;;;;;2.50;0.80;;;10.20;99.90;;;;;;5044006;28;20485;-44
2024/03/02 10:38:20;;;;;;;1.00;0.63;;;10.20;99.90;;;;;;5046853;28;20800;-45
2024/03/02 10:40:49;;;;;;;2.70;1.03;;;10.30;99.90;;;;;;5045733;28;20493;-43
2024/03/02 10:43:21;;;;;;;3.80;0.77;;;10.30;99.90;;;;;;5048071;28;20468;-44
2024/03/02 10:45:56;;;;;;;1.80;0.70;;;10.30;99.90;;;;;;5051628;28;21023;-47
2024/03/02 10:48:27;;;;;;;1.90;0.90;;;10.30;99.90;;;;;;5049517;28;20468;-46
2024/03/02 10:51:01;;;;;;;3.20;0.73;;;10.30;99.90;;;;;;5041529;28;21032;-44
2024/03/02 10:53:31;;;;;;;2.63;0.90;;;10.30;99.90;;;;;;5053048;28;20437;-44
2024/03/02 10:56:02;;;;;;;1.43;0.70;;;10.30;99.90;;;;;;5048338;28;20469;-46
2024/03/02 10:58:34;;;;;;;2.17;1.10;;;10.40;99.90;;;;;;5042153;28;20497;-45
2024/03/02 11:01:04;;;;;;;3.63;0.80;;;10.40;99.90;;;;;;5044508;28;20482;-46
2024/03/02 11:03:37;;;;;;;2.70;0.87;;;10.40;99.90;;;;;;5047574;28;20825;-44
2024/03/02 11:06:10;;;;;;;1.20;0.60;;;10.40;99.90;;;;;;5048691;28;21061;-44
2024/03/02 11:08:44;;;;;;;1.87;1.20;;;10.40;99.90;;;;;;5052152;28;20913;-46
2024/03/02 11:11:20;;;;;;;2.57;0.93;;;10.40;99.90;;;;;;5054909;28;20490;-46
2024/03/02 11:13:53;;;;;;;2.70;1.10;;;10.40;99.90;;;;;;5051934;28;20442;-43
2024/03/02 11:16:34;;;;;;;2.70;1.27;;;10.40;99.90;;;;;;5051268;28;20972;-46
2024/03/02 11:19:06;;;;;;;2.10;1.20;;;10.40;99.90;;;;;;5047934;28;20494;-45
2024/03/02 11:21:36;;;;;;;4.97;2.70;;;10.50;99.90;;;;;;5050624;28;20999;-47
2024/03/02 11:24:35;;;;;;;4.67;3.50;;;10.50;99.90;;;;;;5054771;28;20429;-45
2024/03/02 11:27:11;;;;;;;3.60;2.30;;;10.60;99.90;;;;;;5050638;28;20443;-44
2024/03/02 11:29:49;;;;;;;3.23;2.20;;;10.60;99.90;;;;;;5058003;28;20459;-44
2024/03/02 11:32:23;;;;;;;3.70;2.33;;;10.60;99.90;;;;;;5055057;28;20795;-44
2024/03/02 11:34:52;;;;;;;4.80;2.30;;;10.50;99.90;;;;;;5045159;28;20993;-44
2024/03/02 11:37:23;;;;;;;3.20;2.30;;;10.50;99.90;;;;;;5052153;28;20438;-45
2024/03/02 11:39:52;;;;;;;4.33;2.00;;;10.50;99.90;;;;;;5048758;28;20432;-44
2024/03/02 11:42:21;;;;;;;3.80;2.10;;;10.50;99.90;;;;;;5050443;28;20445;-45
2024/03/02 11:44:58;;;;;;;3.93;2.40;;;10.50;99.90;;;;;;5048592;28;20471;-45
2024/03/02 11:47:32;;;;;;;3.70;1.97;;;10.50;99.90;;;;;;5051875;28;20448;-44
2024/03/02 11:50:06;;;;;;;4.80;2.37;;;10.50;99.90;;;;;;5044082;28;20838;-44
2024/03/02 11:52:39;;;;;;;3.73;2.10;;;10.50;99.90;;;;;;5046454;28;20446;-44
2024/03/02 11:55:12;;;;;;;3.80;2.20;;;10.50;99.90;;;;;;5050765;28;20461;-46
2024/03/02 11:57:42;;;;;;;3.30;2.27;;;10.50;99.90;;;;;;5034707;28;20515;-46
2024/03/02 12:00:18;;;;;;;3.33;1.90;;;10.50;99.90;;;;;;5049204;28;20533;-46
2024/03/02 12:03:00;;;;;;;4.23;2.13;;;10.50;99.90;;;;;;5050586;28;20442;-44
2024/03/02 12:05:28;;;;;;;5.20;1.80;;;10.50;99.90;;;;;;5049366;28;20472;-46
2024/03/02 12:07:58;;;;;;;2.93;1.87;;;10.50;99.90;;;;;;5050166;28;20433;-45
2024/03/02 12:10:27;;;;;;;4.60;1.93;;;10.50;99.90;;;;;;5049907;28;20460;-45
2024/03/02 12:12:58;;;;;;;2.53;1.80;;;10.50;99.90;;;;;;5046509;28;20522;-44
2024/03/02 12:15:29;;;;;;;4.00;1.90;;;10.50;99.90;;;;;;5050170;28;20478;-46
2024/03/02 12:18:00;;;;;;;4.93;2.37;;;10.50;99.90;;;;;;5057654;28;21001;-45
2024/03/02 12:20:30;;;;;;;2.93;1.97;;;10.40;99.90;;;;;;5044551;28;21124;-44
2024/03/02 12:23:00;;;;;;;3.20;1.83;;;10.40;99.90;;;;;;5052501;28;20482;-44
2024/03/02 12:25:29;;;;;;;3.10;1.90;;;10.40;99.90;;;;;;5052057;28;20837;-44
2024/03/02 12:27:58;;;;;;;3.50;2.17;;;10.40;99.90;;;;;;5049101;28;20439;-43
2024/03/02 12:30:29;;;;;;;2.60;1.70;;;10.40;99.90;;;;;;5049566;28;20460;-42
2024/03/02 12:33:02;;;;;;;6.00;2.47;;;10.40;99.90;;;;;;5046241;28;20484;-44
2024/03/02 12:35:31;;;;;;;4.80;2.03;;;10.40;99.90;;;;;;5043863;28;20556;-44
2024/03/02 12:38:00;;;;;;;3.10;1.70;;;10.40;99.90;;;;;;5051280;28;20514;-44
2024/03/02 12:40:32;;;;;;;3.50;2.13;;;10.40;99.90;;;;;;5049911;28;20476;-45
2024/03/02 12:43:01;;;;;;;3.03;1.67;;;10.40;99.90;;;;;;5051939;28;20438;-45
2024/03/02 12:45:29;;;;;;;3.00;1.43;;;10.40;99.90;;;;;;5053622;28;20501;-45
2024/03/02 12:47:57;;;;;;;3.30;2.17;;;10.40;99.90;;;;;;5055203;28;20427;-44
2024/03/02 12:50:28;;;;;;;2.20;0.90;;;10.40;99.90;;;;;;5045839;28;20564;-44
2024/03/02 12:52:57;;;;;;;2.33;0.80;;;10.50;99.90;;;;;;5048928;28;20440;-44
2024/03/02 12:55:28;;;;;;;1.70;1.03;;;10.70;99.90;;;;;;5049637;28;20981;-45
2024/03/02 12:57:58;;;;;;;3.03;0.97;;;10.90;99.90;;;;;;5046076;28;20810;-45
2024/03/02 13:00:27;;;;;;;2.50;0.80;;;11.00;99.20;;;;;;5049965;28;20474;-45
2024/03/02 13:03:01;;;;;;;2.13;1.10;;;11.10;98.20;;;;;;5033086;28;20441;-45
2024/03/02 13:05:33;;;;;;;2.50;0.77;;;11.10;98.30;;;;;;5046198;28;20497;-45
2024/03/02 13:08:03;;;;;;;2.33;1.20;;;11.10;98.50;;;;;;5047881;28;20819;-46
2024/03/02 13:10:31;;;;;;;5.20;1.00;;;11.10;99.20;;;;;;5055770;28;20452;-44
2024/03/02 13:13:02;;;;;;;2.07;0.87;;;11.10;99.90;;;;;;5048328;28;20452;-44